Time,TemperatureF,DewpointF,PressureIn,WindDirection,WindDirectionDegrees,WindSpeedMPH,WindSpeedGustMPH,Humidity,HourlyPrecipIn,Conditions,Clouds,dailyrainin,SolarRadiationWatts/m^2,SoftwareType,DateUTC
2013-03-21 00:00:00,27.3,17.8,29.90,NW,304,2.0,7.0,67,0.00,,---,0.00,0.00,VWS V14.00,2013-03-21 04:00:00,
2013-03-21 00:01:00,27.3,17.5,29.90,NW,304,2.0,7.0,66,0.00,,---,0.00,0.00,VWS V14.00,2013-03-21 04:01:00,
2013-03-21 00:06:00,27.3,17.8,29.90,NW,304,1.0,4.0,67,0.00,,---,0.00,0.00,VWS V14.00,2013-03-21 04:06:00,
2013-03-21 00:11:00,27.3,18.1,29.90,WNW,294,2.0,7.0,68,0.00,,---,0.00,0.00,VWS V14.00,2013-03-21 04:11:00,
2013-03-21 00:16:00,27.4,18.9,29.90,WNW,297,2.0,7.0,70,0.00,,---,0.00,0.00,VWS V14.00,2013-03-21 04:16:00,
2013-03-21 00:21:00,27.3,18.8,29.90,NNW,346,0.0,7.0,70,0.00,,---,0.00,0.00,VWS V14.00,2013-03-21 04:21:00,
2013-03-21 00:26:00,27.3,19.1,29.90,WNW,292,5.0,7.0,71,0.00,,---,0.00,0.00,VWS V14.00,2013-03-21 04:26:00,
2013-03-21 00:30:00,27.2,19.1,29.90,NW,306,2.0,7.0,71,0.00,,---,0.00,0.00,VWS V14.00,2013-03-21 04:30:00,
2013-03-21 00:32:00,27.2,19.1,29.90,NW,306,0.0,2.0,71,0.00,,---,0.00,0.00,VWS V14.00,2013-03-21 04:32:00,
2013-03-21 00:37:00,27.0,19.2,29.90,NW,306,4.0,5.0,72,0.00,,---,0.00,0.00,VWS V14.00,2013-03-21 04:37:00,
2013-03-21 00:42:00,26.9,18.4,29.90,WNW,300,1.0,6.0,70,0.00,,---,0.00,0.00,VWS V14.00,2013-03-21 04:42:00,
2013-03-21 00:47:00,26.9,18.1,29.90,NW,314,6.0,11.0,69,0.00,,---,0.00,0.00,VWS V14.00,2013-03-21 04:47:00,
2013-03-21 00:52:00,26.8,17.7,29.90,WNW,294,4.0,12.0,68,0.00,,---,0.00,0.00,VWS V14.00,2013-03-21 04:52:00,
2013-03-21 00:57:00,26.8,17.7,29.89,WNW,290,4.0,12.0,68,0.00,,---,0.00,0.00,VWS V14.00,2013-03-21 04:57:00,
2013-03-21 01:00:00,26.8,18.0,29.89,WNW,296,1.0,12.0,69,0.00,,---,0.00,0.00,VWS V14.00,2013-03-21 05:00:00,
2013-03-21 01:02:00,26.8,18.0,29.89,WNW,296,1.0,2.0,69,0.00,,---,0.00,0.00,VWS V14.00,2013-03-21 05:02:00,
2013-03-21 01:07:00,26.8,18.3,29.89,West,260,4.0,7.0,70,0.00,,---,0.00,0.00,VWS V14.00,2013-03-21 05:07:00,
2013-03-21 01:12:00,26.8,18.7,29.89,NW,311,9.0,13.0,71,0.00,,---,0.00,0.00,VWS V14.00,2013-03-21 05:12:00,
2013-03-21 01:17:00,26.3,19.8,29.89,WNW,288,6.0,13.0,76,0.00,,---,0.00,0.00,VWS V14.00,2013-03-21 05:17:00,
2013-03-21 01:22:00,25.8,20.2,29.89,WNW,286,2.0,13.0,79,0.00,,---,0.00,0.00,VWS V14.00,2013-03-21 05:22:00,
2013-03-21 01:27:00,25.6,20.6,29.89,WNW,284,4.0,13.0,81,0.00,,---,0.00,0.00,VWS V14.00,2013-03-21 05:27:00,
2013-03-21 01:30:00,25.5,20.2,29.89,West,275,5.0,13.0,80,0.00,,---,0.00,0.00,VWS V14.00,2013-03-21 05:30:00,
2013-03-21 01:32:00,25.4,19.8,29.89,West,273,4.0,6.0,79,0.00,,---,0.00,0.00,VWS V14.00,2013-03-21 05:32:00,
2013-03-21 01:37:00,25.4,20.1,29.89,West,265,4.0,6.0,80,0.00,,---,0.00,0.00,VWS V14.00,2013-03-21 05:37:00,
2013-03-21 01:42:00,25.3,20.3,29.89,WSW,244,2.0,6.0,81,0.00,,---,0.00,0.00,VWS V14.00,2013-03-21 05:42:00,
2013-03-21 01:47:00,25.3,20.6,29.89,WSW,245,0.0,6.0,82,0.00,,---,0.00,0.00,VWS V14.00,2013-03-21 05:47:00,
2013-03-21 01:53:00,25.3,20.9,29.89,WSW,245,0.0,6.0,83,0.00,,---,0.00,0.00,VWS V14.00,2013-03-21 05:53:00,
2013-03-21 01:58:00,25.3,20.9,29.89,WSW,245,1.0,6.0,83,0.00,,---,0.00,0.00,VWS V14.00,2013-03-21 05:58:00,
2013-03-21 02:00:00,25.3,20.9,29.89,WSW,239,1.0,6.0,83,0.00,,---,0.00,0.00,VWS V14.00,2013-03-21 06:00:00,
2013-03-21 02:03:00,25.2,20.8,29.88,WSW,239,0.0,0.0,83,0.00,,---,0.00,0.00,VWS V14.00,2013-03-21 06:03:00,
2013-03-21 02:08:00,25.2,20.8,29.89,WSW,249,3.0,3.0,83,0.00,,---,0.00,0.00,VWS V14.00,2013-03-21 06:08:00,
2013-03-21 02:13:00,25.2,20.8,29.89,WSW,254,1.0,3.0,83,0.00,,---,0.00,0.00,VWS V14.00,2013-03-21 06:13:00,
2013-03-21 02:18:00,25.2,21.0,29.89,West,273,5.0,5.0,84,0.00,,---,0.00,0.00,VWS V14.00,2013-03-21 06:18:00,
2013-03-21 02:23:00,24.9,20.2,29.89,West,269,5.0,8.0,82,0.00,,---,0.00,0.00,VWS V14.00,2013-03-21 06:23:00,
2013-03-21 02:28:00,24.5,20.1,29.89,West,281,9.0,11.0,83,0.00,,---,0.00,0.00,VWS V14.00,2013-03-21 06:28:00,
2013-03-21 02:30:00,24.3,20.2,29.88,WNW,284,8.0,14.0,84,0.00,,---,0.00,0.00,VWS V14.00,2013-03-21 06:30:00,
2013-03-21 02:33:00,24.1,20.0,29.89,WNW,302,5.0,9.0,84,0.00,,---,0.00,0.00,VWS V14.00,2013-03-21 06:33:00,
2013-03-21 02:38:00,23.8,20.2,29.89,WNW,284,7.0,9.0,86,0.00,,---,0.00,0.00,VWS V14.00,2013-03-21 06:38:00,
2013-03-21 02:43:00,23.7,20.1,29.89,West,280,5.0,9.0,86,0.00,,---,0.00,0.00,VWS V14.00,2013-03-21 06:43:00,
2013-03-21 02:48:00,23.6,20.3,29.88,West,277,5.0,9.0,87,0.00,,---,0.00,0.00,VWS V14.00,2013-03-21 06:48:00,
2013-03-21 02:53:00,23.5,20.5,29.88,WNW,288,6.0,11.0,88,0.00,,---,0.00,0.00,VWS V14.00,2013-03-21 06:53:00,
2013-03-21 02:58:00,23.4,20.4,29.88,WNW,284,7.0,13.0,88,0.00,,---,0.00,0.00,VWS V14.00,2013-03-21 06:58:00,
2013-03-21 03:00:00,23.3,20.3,29.88,WNW,292,11.0,13.0,88,0.00,,---,0.00,0.00,VWS V14.00,2013-03-21 07:00:00,
2013-03-21 03:03:00,23.3,20.3,29.88,West,259,7.0,12.0,88,0.00,,---,0.00,0.00,VWS V14.00,2013-03-21 07:03:00,
2013-03-21 03:08:00,23.2,19.6,29.88,West,270,14.0,20.0,86,0.00,,---,0.00,0.00,VWS V14.00,2013-03-21 07:08:00,
2013-03-21 03:13:00,22.9,18.8,29.88,WNW,286,6.0,20.0,84,0.00,,---,0.00,0.00,VWS V14.00,2013-03-21 07:13:00,
2013-03-21 03:30:00,22.0,17.9,29.87,West,270,7.0,20.0,84,0.00,,---,0.00,0.00,VWS V14.00,2013-03-21 07:30:00,
2013-03-21 04:00:00,21.5,16.9,29.87,West,270,5.0,11.0,82,0.00,,---,0.00,0.00,VWS V14.00,2013-03-21 08:00:00,
2013-03-21 04:30:00,21.5,16.6,29.87,WNW,292,4.0,9.0,81,0.00,,---,0.00,0.00,VWS V14.00,2013-03-21 08:30:00,
2013-03-21 05:00:00,21.1,16.2,29.87,WNW,292,5.0,13.0,81,0.00,,---,0.00,0.00,VWS V14.00,2013-03-21 09:00:00,
2013-03-21 05:30:00,20.7,16.9,29.88,WNW,292,5.0,12.0,85,0.00,,---,0.00,0.00,VWS V14.00,2013-03-21 09:30:00,
2013-03-21 06:00:00,20.1,15.8,29.87,West,270,3.0,7.0,83,0.00,,---,0.00,0.00,VWS V14.00,2013-03-21 10:00:00,
2013-03-21 06:26:00,19.7,15.7,29.88,West,268,3.0,3.0,84,0.00,,---,0.00,0.00,VWS V14.00,2013-03-21 10:26:00,
2013-03-21 06:30:00,19.8,15.8,29.88,West,269,2.0,5.0,84,0.00,,---,0.00,0.00,VWS V14.00,2013-03-21 10:30:00,
2013-03-21 06:31:00,19.8,15.8,29.88,West,269,2.0,5.0,84,0.00,,---,0.00,0.00,VWS V14.00,2013-03-21 10:31:00,
2013-03-21 06:36:00,19.9,16.1,29.88,West,269,2.0,3.0,85,0.00,,---,0.00,0.00,VWS V14.00,2013-03-21 10:36:00,
2013-03-21 06:41:00,19.8,16.0,29.87,West,268,0.0,4.0,85,0.00,,---,0.00,0.00,VWS V14.00,2013-03-21 10:41:00,
2013-03-21 06:46:00,19.7,15.9,29.87,WNW,282,2.0,6.0,85,0.00,,---,0.00,0.00,VWS V14.00,2013-03-21 10:46:00,
2013-03-21 06:51:00,19.5,15.7,29.87,WNW,283,2.0,6.0,85,0.00,,---,0.00,0.00,VWS V14.00,2013-03-21 10:51:00,
2013-03-21 06:56:00,19.4,15.6,29.87,West,275,5.0,6.0,85,0.00,,---,0.00,0.00,VWS V14.00,2013-03-21 10:56:00,
2013-03-21 07:00:00,19.3,15.5,29.88,WNW,298,5.0,12.0,85,0.00,,---,0.00,0.00,VWS V14.00,2013-03-21 11:00:00,
2013-03-21 07:01:00,19.3,15.5,29.87,WNW,299,4.0,5.0,85,0.00,,---,0.00,0.00,VWS V14.00,2013-03-21 11:01:00,
2013-03-21 07:06:00,19.3,15.3,29.88,WNW,298,0.0,6.0,84,0.00,,---,0.00,0.00,VWS V14.00,2013-03-21 11:06:00,
2013-03-21 07:11:00,19.2,15.2,29.87,WNW,284,1.0,6.0,84,0.00,,---,0.00,0.00,VWS V14.00,2013-03-21 11:11:00,
2013-03-21 07:16:00,19.1,14.8,29.87,WNW,288,2.0,6.0,83,0.00,,---,0.00,0.00,VWS V14.00,2013-03-21 11:16:00,
2013-03-21 07:21:00,19.3,14.7,29.87,WNW,287,2.0,10.0,82,0.00,,---,0.00,0.00,VWS V14.00,2013-03-21 11:21:00,
2013-03-21 07:26:00,19.5,14.9,29.87,WNW,289,6.0,11.0,82,0.00,,---,0.00,5.00,VWS V14.00,2013-03-21 11:26:00,
2013-03-21 07:30:00,19.6,14.7,29.87,West,281,5.0,11.0,81,0.00,,---,0.00,5.00,VWS V14.00,2013-03-21 11:30:00,
2013-03-21 07:31:00,19.6,14.7,29.87,NW,305,7.0,9.0,81,0.00,,---,0.00,5.00,VWS V14.00,2013-03-21 11:31:00,
2013-03-21 07:37:00,19.5,14.6,29.87,WNW,284,4.0,9.0,81,0.00,,---,0.00,9.00,VWS V14.00,2013-03-21 11:37:00,
2013-03-21 07:42:00,19.5,14.6,29.87,West,280,8.0,9.0,81,0.00,,---,0.00,14.00,VWS V14.00,2013-03-21 11:42:00,
2013-03-21 07:47:00,19.4,14.2,29.88,WNW,298,6.0,9.0,80,0.00,,---,0.00,21.00,VWS V14.00,2013-03-21 11:47:00,
2013-03-21 07:52:00,19.4,14.2,29.88,West,273,4.0,9.0,80,0.00,,---,0.00,26.00,VWS V14.00,2013-03-21 11:52:00,
2013-03-21 07:57:00,19.5,14.6,29.87,West,274,7.0,9.0,81,0.00,,---,0.00,30.00,VWS V14.00,2013-03-21 11:57:00,
2013-03-21 08:00:00,19.5,14.9,29.88,West,266,3.0,9.0,82,0.00,,---,0.00,35.00,VWS V14.00,2013-03-21 12:00:00,
2013-03-21 08:02:00,19.5,14.9,29.88,West,261,2.0,5.0,82,0.00,,---,0.00,35.00,VWS V14.00,2013-03-21 12:02:00,
2013-03-21 08:07:00,19.5,14.9,29.88,WSW,248,1.0,5.0,82,0.00,,---,0.00,40.00,VWS V14.00,2013-03-21 12:07:00,
2013-03-21 08:12:00,19.4,15.1,29.88,WSW,248,1.0,5.0,83,0.00,,---,0.00,54.00,VWS V14.00,2013-03-21 12:12:00,
2013-03-21 08:17:00,19.4,15.1,29.88,WSW,248,1.0,5.0,83,0.00,,---,0.00,67.00,VWS V14.00,2013-03-21 12:17:00,
2013-03-21 08:22:00,19.3,15.0,29.88,WSW,255,2.0,5.0,83,0.00,,---,0.00,74.00,VWS V14.00,2013-03-21 12:22:00,
2013-03-21 08:27:00,19.3,15.0,29.88,WSW,254,1.0,5.0,83,0.00,,---,0.00,93.00,VWS V14.00,2013-03-21 12:27:00,
2013-03-21 08:30:00,19.3,15.0,29.88,WSW,257,2.0,5.0,83,0.00,,---,0.00,120.00,VWS V14.00,2013-03-21 12:30:00,
2013-03-21 08:32:00,19.4,15.1,29.88,WSW,257,1.0,3.0,83,0.00,,---,0.00,125.00,VWS V14.00,2013-03-21 12:32:00,
2013-03-21 08:37:00,19.4,15.1,29.88,WSW,257,1.0,3.0,83,0.00,,---,0.00,104.00,VWS V14.00,2013-03-21 12:37:00,
2013-03-21 08:42:00,19.6,15.3,29.88,WSW,256,1.0,3.0,83,0.00,,---,0.00,165.00,VWS V14.00,2013-03-21 12:42:00,
2013-03-21 08:48:00,19.8,15.5,29.88,West,262,3.0,4.0,83,0.00,,---,0.00,250.00,VWS V14.00,2013-03-21 12:48:00,
2013-03-21 08:53:00,20.1,15.2,29.88,West,276,4.0,6.0,81,0.00,,---,0.00,193.00,VWS V14.00,2013-03-21 12:53:00,
2013-03-21 08:58:00,20.3,15.1,29.88,West,275,2.0,7.0,80,0.00,,---,0.00,264.00,VWS V14.00,2013-03-21 12:58:00,
2013-03-21 09:00:00,20.5,15.0,29.88,WSW,257,1.0,8.0,79,0.00,,---,0.00,278.00,VWS V14.00,2013-03-21 13:00:00,
2013-03-21 09:03:00,20.6,15.4,29.88,WNW,298,4.0,5.0,80,0.00,,---,0.00,285.00,VWS V14.00,2013-03-21 13:03:00,
2013-03-21 09:08:00,20.7,14.9,29.88,WSW,256,5.0,9.0,78,0.00,,---,0.00,292.00,VWS V14.00,2013-03-21 13:08:00,
2013-03-21 09:13:00,20.9,14.8,29.88,WNW,284,2.0,10.0,77,0.00,,---,0.00,325.00,VWS V14.00,2013-03-21 13:13:00,
2013-03-21 09:18:00,21.0,14.9,29.88,West,277,5.0,10.0,77,0.00,,---,0.00,362.00,VWS V14.00,2013-03-21 13:18:00,
2013-03-21 09:23:00,21.3,14.9,29.88,WNW,283,7.0,10.0,76,0.00,,---,0.00,381.00,VWS V14.00,2013-03-21 13:23:00,
2013-03-21 09:28:00,21.5,14.8,29.88,West,266,8.0,11.0,75,0.00,,---,0.00,295.00,VWS V14.00,2013-03-21 13:28:00,
2013-03-21 09:30:00,21.6,14.9,29.88,West,265,10.0,12.0,75,0.00,,---,0.00,420.00,VWS V14.00,2013-03-21 13:30:00,
2013-03-21 09:33:00,21.5,14.5,29.88,West,280,8.0,12.0,74,0.00,,---,0.00,102.00,VWS V14.00,2013-03-21 13:33:00,
2013-03-21 09:38:00,21.2,13.9,29.88,West,268,6.0,12.0,73,0.00,,---,0.00,461.00,VWS V14.00,2013-03-21 13:38:00,
2013-03-21 09:43:00,21.6,14.0,29.88,West,272,7.0,12.0,72,0.00,,---,0.00,468.00,VWS V14.00,2013-03-21 13:43:00,
2013-03-21 09:48:00,21.8,13.9,29.88,West,281,11.0,14.0,71,0.00,,---,0.00,475.00,VWS V14.00,2013-03-21 13:48:00,
2013-03-21 09:53:00,21.7,13.4,29.88,WNW,284,14.0,15.0,70,0.00,,---,0.00,513.00,VWS V14.00,2013-03-21 13:53:00,
2013-03-21 09:58:00,21.9,13.3,29.88,West,279,12.0,16.0,69,0.00,,---,0.00,510.00,VWS V14.00,2013-03-21 13:58:00,
2013-03-21 10:00:00,22.0,13.1,29.89,West,259,10.0,16.0,68,0.00,,---,0.00,536.00,VWS V14.00,2013-03-21 14:00:00,
2013-03-21 10:03:00,22.1,13.5,29.88,WSW,257,10.0,12.0,69,0.00,,---,0.00,555.00,VWS V14.00,2013-03-21 14:03:00,
2013-03-21 10:08:00,22.5,13.9,29.89,WNW,284,6.0,21.0,69,0.00,,---,0.00,566.00,VWS V14.00,2013-03-21 14:08:00,
2013-03-21 10:13:00,22.4,11.7,29.88,WNW,292,12.0,21.0,63,0.00,,---,0.00,531.00,VWS V14.00,2013-03-21 14:13:00,
2013-03-21 10:18:00,22.4,12.8,29.89,WNW,288,12.0,21.0,66,0.00,,---,0.00,575.00,VWS V14.00,2013-03-21 14:18:00,
2013-03-21 10:23:00,22.5,11.8,29.89,WNW,284,7.0,21.0,63,0.00,,---,0.00,163.00,VWS V14.00,2013-03-21 14:23:00,
2013-03-21 10:28:00,22.3,12.3,29.89,WNW,293,8.0,21.0,65,0.00,,---,0.00,197.00,VWS V14.00,2013-03-21 14:28:00,
2013-03-21 10:30:00,22.3,12.0,29.89,WNW,282,12.0,21.0,64,0.00,,---,0.00,216.00,VWS V14.00,2013-03-21 14:30:00,
2013-03-21 10:33:00,22.2,11.5,29.89,West,275,11.0,14.0,63,0.00,,---,0.00,218.00,VWS V14.00,2013-03-21 14:33:00,
2013-03-21 10:38:00,22.4,12.1,29.89,West,264,6.0,15.0,64,0.00,,---,0.00,782.00,VWS V14.00,2013-03-21 14:38:00,
2013-03-21 10:43:00,22.9,12.6,29.88,West,279,8.0,16.0,64,0.00,,---,0.00,313.00,VWS V14.00,2013-03-21 14:43:00,
2013-03-21 10:48:00,23.0,12.3,29.88,West,263,5.0,16.0,63,0.00,,---,0.00,243.00,VWS V14.00,2013-03-21 14:48:00,
2013-03-21 10:53:00,22.6,11.6,29.89,West,279,12.0,16.0,62,0.00,,---,0.00,167.00,VWS V14.00,2013-03-21 14:53:00,
2013-03-21 10:58:00,22.4,11.0,29.89,WNW,282,9.0,16.0,61,0.00,,---,0.00,269.00,VWS V14.00,2013-03-21 14:58:00,
2013-03-21 11:00:00,22.7,11.6,29.89,WNW,288,9.0,16.0,62,0.00,,---,0.00,306.00,VWS V14.00,2013-03-21 15:00:00,
2013-03-21 11:03:00,22.8,11.0,29.89,WNW,291,7.0,14.0,60,0.00,,---,0.00,287.00,VWS V14.00,2013-03-21 15:03:00,
2013-03-21 11:08:00,22.7,11.3,29.89,WNW,286,6.0,15.0,61,0.00,,---,0.00,221.00,VWS V14.00,2013-03-21 15:08:00,
2013-03-21 11:13:00,22.6,10.8,29.89,West,277,7.0,18.0,60,0.00,,---,0.00,179.00,VWS V14.00,2013-03-21 15:13:00,
2013-03-21 11:18:00,23.0,11.2,29.89,West,280,7.0,18.0,60,0.00,,---,0.00,304.00,VWS V14.00,2013-03-21 15:18:00,
2013-03-21 11:24:00,23.4,11.6,29.89,WSW,256,6.0,18.0,60,0.00,,---,0.00,679.00,VWS V14.00,2013-03-21 15:24:00,
2013-03-21 11:29:00,23.9,12.1,29.89,West,268,10.0,18.0,60,0.00,,---,0.00,589.00,VWS V14.00,2013-03-21 15:29:00,
2013-03-21 11:30:00,24.0,11.8,29.89,WNW,284,8.0,18.0,59,0.00,,---,0.00,285.00,VWS V14.00,2013-03-21 15:30:00,
2013-03-21 11:34:00,23.8,10.8,29.89,WNW,290,13.0,18.0,57,0.00,,---,0.00,241.00,VWS V14.00,2013-03-21 15:34:00,
2013-03-21 11:39:00,23.7,11.1,29.89,WNW,291,11.0,18.0,58,0.00,,---,0.00,327.00,VWS V14.00,2013-03-21 15:39:00,
2013-03-21 11:44:00,23.8,11.2,29.89,West,278,12.0,18.0,58,0.00,,---,0.00,292.00,VWS V14.00,2013-03-21 15:44:00,
2013-03-21 11:49:00,23.8,10.8,29.88,WNW,283,12.0,19.0,57,0.00,,---,0.00,304.00,VWS V14.00,2013-03-21 15:49:00,
2013-03-21 11:54:00,23.7,11.1,29.88,WNW,286,14.0,19.0,58,0.00,,---,0.00,276.00,VWS V14.00,2013-03-21 15:54:00,
2013-03-21 11:59:00,23.9,12.1,29.89,West,267,11.0,19.0,60,0.00,,---,0.00,313.00,VWS V14.00,2013-03-21 15:59:00,
2013-03-21 12:00:00,24.0,11.4,29.88,West,273,11.0,19.0,58,0.00,,---,0.00,332.00,VWS V14.00,2013-03-21 16:00:00,
2013-03-21 12:04:00,24.1,12.2,29.88,WNW,294,6.0,18.0,60,0.00,,---,0.00,294.00,VWS V14.00,2013-03-21 16:04:00,
2013-03-21 12:09:00,24.4,11.8,29.88,WNW,290,12.0,18.0,58,0.00,,---,0.00,295.00,VWS V14.00,2013-03-21 16:09:00,
2013-03-21 12:14:00,24.2,11.6,29.88,West,271,7.0,18.0,58,0.00,,---,0.00,336.00,VWS V14.00,2013-03-21 16:14:00,
2013-03-21 12:19:00,24.2,11.6,29.88,WNW,284,6.0,18.0,58,0.00,,---,0.00,362.00,VWS V14.00,2013-03-21 16:19:00,
2013-03-21 12:24:00,24.5,12.6,29.89,West,267,8.0,18.0,60,0.00,,---,0.00,388.00,VWS V14.00,2013-03-21 16:24:00,
2013-03-21 12:29:00,24.6,11.6,29.89,WSW,247,12.0,18.0,57,0.00,,---,0.00,304.00,VWS V14.00,2013-03-21 16:29:00,
2013-03-21 12:30:00,24.5,12.2,29.89,West,271,6.0,18.0,59,0.00,,---,0.00,315.00,VWS V14.00,2013-03-21 16:30:00,
2013-03-21 12:34:00,24.6,11.9,29.89,NW,304,13.0,17.0,58,0.00,,---,0.00,346.00,VWS V14.00,2013-03-21 16:34:00,
2013-03-21 12:39:00,24.3,11.3,29.89,WNW,298,11.0,17.0,57,0.00,,---,0.00,294.00,VWS V14.00,2013-03-21 16:39:00,
2013-03-21 12:44:00,24.5,12.2,29.89,WNW,296,8.0,17.0,59,0.00,,---,0.00,329.00,VWS V14.00,2013-03-21 16:44:00,
2013-03-21 12:49:00,24.6,12.3,29.89,West,280,8.0,18.0,59,0.00,,---,0.00,287.00,VWS V14.00,2013-03-21 16:49:00,
2013-03-21 12:54:00,24.6,11.9,29.90,WNW,282,12.0,20.0,58,0.00,,---,0.00,353.00,VWS V14.00,2013-03-21 16:54:00,
2013-03-21 12:59:00,24.5,11.1,29.89,WSW,256,10.0,20.0,56,0.00,,---,0.00,397.00,VWS V14.00,2013-03-21 16:59:00,
2013-03-21 13:00:00,24.5,11.1,29.89,WSW,252,5.0,20.0,56,0.00,,---,0.00,397.00,VWS V14.00,2013-03-21 17:00:00,
2013-03-21 13:04:00,25.2,13.3,29.89,West,268,17.0,22.0,60,0.00,,---,0.00,853.00,VWS V14.00,2013-03-21 17:04:00,
2013-03-21 13:09:00,25.9,13.2,29.89,West,281,9.0,22.0,58,0.00,,---,0.00,316.00,VWS V14.00,2013-03-21 17:09:00,
2013-03-21 13:14:00,25.4,11.5,29.89,WNW,285,18.0,22.0,55,0.00,,---,0.00,258.00,VWS V14.00,2013-03-21 17:14:00,
2013-03-21 13:19:00,24.9,10.6,29.89,West,281,14.0,22.0,54,0.00,,---,0.00,265.00,VWS V14.00,2013-03-21 17:19:00,
2013-03-21 13:24:00,24.9,11.4,29.89,West,273,15.0,22.0,56,0.00,,---,0.00,329.00,VWS V14.00,2013-03-21 17:24:00,
2013-03-21 13:29:00,25.0,11.9,29.89,WNW,290,16.0,22.0,57,0.00,,---,0.00,244.00,VWS V14.00,2013-03-21 17:29:00,
2013-03-21 13:30:00,24.9,10.6,29.89,West,278,9.0,22.0,54,0.00,,---,0.00,236.00,VWS V14.00,2013-03-21 17:30:00,
2013-03-21 13:34:00,24.9,11.0,29.89,WNW,286,12.0,15.0,55,0.00,,---,0.00,278.00,VWS V14.00,2013-03-21 17:34:00,
2013-03-21 13:39:00,25.0,11.1,29.90,West,267,13.0,19.0,55,0.00,,---,0.00,582.00,VWS V14.00,2013-03-21 17:39:00,
2013-03-21 13:44:00,25.4,11.9,29.90,WNW,288,2.0,19.0,56,0.00,,---,0.00,376.00,VWS V14.00,2013-03-21 17:44:00,
2013-03-21 13:49:00,25.6,11.7,29.90,West,274,9.0,19.0,55,0.00,,---,0.00,360.00,VWS V14.00,2013-03-21 17:49:00,
2013-03-21 13:54:00,25.5,10.8,29.89,WNW,303,12.0,21.0,53,0.00,,---,0.00,234.00,VWS V14.00,2013-03-21 17:54:00,
2013-03-21 13:59:00,25.2,11.3,29.89,West,269,12.0,21.0,55,0.00,,---,0.00,209.00,VWS V14.00,2013-03-21 17:59:00,
2013-03-21 14:00:00,25.2,11.7,29.89,WNW,293,9.0,21.0,56,0.00,,---,0.00,227.00,VWS V14.00,2013-03-21 18:00:00,
2013-03-21 14:05:00,25.2,12.5,29.89,WNW,302,14.0,21.0,58,0.00,,---,0.00,267.00,VWS V14.00,2013-03-21 18:05:00,
2013-03-21 14:10:00,25.1,11.2,29.89,WNW,291,8.0,22.0,55,0.00,,---,0.00,271.00,VWS V14.00,2013-03-21 18:10:00,
2013-03-21 14:15:00,25.3,12.2,29.89,WNW,284,9.0,22.0,57,0.00,,---,0.00,279.00,VWS V14.00,2013-03-21 18:15:00,
2013-03-21 14:20:00,25.7,13.0,29.89,West,265,6.0,22.0,58,0.00,,---,0.00,548.00,VWS V14.00,2013-03-21 18:20:00,
2013-03-21 14:25:00,26.2,12.2,29.89,West,271,9.0,22.0,55,0.00,,---,0.00,548.00,VWS V14.00,2013-03-21 18:25:00,
2013-03-21 14:30:00,26.9,13.3,29.89,West,273,11.0,22.0,56,0.00,,---,0.00,429.00,VWS V14.00,2013-03-21 18:30:00,
2013-03-21 14:35:00,27.0,12.6,29.90,WNW,298,4.0,15.0,54,0.00,,---,0.00,302.00,VWS V14.00,2013-03-21 18:35:00,
2013-03-21 14:40:00,26.7,11.9,29.89,WNW,299,12.0,16.0,53,0.00,,---,0.00,271.00,VWS V14.00,2013-03-21 18:40:00,
2013-03-21 14:45:00,26.5,13.3,29.89,NW,315,7.0,16.0,57,0.00,,---,0.00,387.00,VWS V14.00,2013-03-21 18:45:00,
2013-03-21 14:50:00,27.8,15.0,29.88,WNW,286,7.0,17.0,58,0.00,,---,0.00,909.00,VWS V14.00,2013-03-21 18:50:00,
2013-03-21 14:55:00,27.6,12.7,29.88,West,277,14.0,25.0,53,0.00,,---,0.00,216.00,VWS V14.00,2013-03-21 18:55:00,
2013-03-21 15:00:00,26.5,11.7,29.88,West,259,10.0,25.0,53,0.00,,---,0.00,197.00,VWS V14.00,2013-03-21 19:00:00,
2013-03-21 15:05:00,26.3,11.9,29.89,West,277,5.0,13.0,54,0.00,,---,0.00,213.00,VWS V14.00,2013-03-21 19:05:00,
2013-03-21 15:10:00,26.5,12.5,29.88,West,271,15.0,20.0,55,0.00,,---,0.00,956.00,VWS V14.00,2013-03-21 19:10:00,
2013-03-21 15:15:00,27.0,10.9,29.88,WSW,250,12.0,20.0,50,0.00,,---,0.00,292.00,VWS V14.00,2013-03-21 19:15:00,
2013-03-21 15:20:00,26.8,11.6,29.88,WNW,298,7.0,20.0,52,0.00,,---,0.00,308.00,VWS V14.00,2013-03-21 19:20:00,
2013-03-21 15:25:00,26.7,12.3,29.89,WNW,284,13.0,20.0,54,0.00,,---,0.00,357.00,VWS V14.00,2013-03-21 19:25:00,
2013-03-21 15:30:00,27.0,13.4,29.88,WNW,282,12.0,20.0,56,0.00,,---,0.00,357.00,VWS V14.00,2013-03-21 19:30:00,
2013-03-21 15:35:00,27.2,12.8,29.89,WNW,282,6.0,18.0,54,0.00,,---,0.00,450.00,VWS V14.00,2013-03-21 19:35:00,
2013-03-21 15:40:00,27.6,12.3,29.88,West,279,14.0,18.0,52,0.00,,---,0.00,341.00,VWS V14.00,2013-03-21 19:40:00,
2013-03-21 15:45:00,27.8,12.9,29.88,West,271,6.0,18.0,53,0.00,,---,0.00,334.00,VWS V14.00,2013-03-21 19:45:00,
2013-03-21 15:50:00,28.0,12.7,29.89,West,265,12.0,18.0,52,0.00,,---,0.00,302.00,VWS V14.00,2013-03-21 19:50:00,
2013-03-21 15:55:00,27.6,11.9,29.89,WNW,288,13.0,20.0,51,0.00,,---,0.00,274.00,VWS V14.00,2013-03-21 19:55:00,
2013-03-21 16:00:00,27.3,12.0,29.89,West,277,9.0,20.0,52,0.00,,---,0.00,246.00,VWS V14.00,2013-03-21 20:00:00,
2013-03-21 16:05:00,27.2,11.5,29.89,West,267,14.0,18.0,51,0.00,,---,0.00,257.00,VWS V14.00,2013-03-21 20:05:00,
2013-03-21 16:10:00,27.2,11.9,29.89,West,270,11.0,18.0,52,0.00,,---,0.00,213.00,VWS V14.00,2013-03-21 20:10:00,
2013-03-21 16:15:00,26.9,12.5,29.89,WNW,283,12.0,18.0,54,0.00,,---,0.00,190.00,VWS V14.00,2013-03-21 20:15:00,
2013-03-21 16:20:00,26.9,11.6,29.89,West,277,9.0,18.0,52,0.00,,---,0.00,214.00,VWS V14.00,2013-03-21 20:20:00,
2013-03-21 16:25:00,27.2,12.4,29.89,West,270,12.0,18.0,53,0.00,,---,0.00,229.00,VWS V14.00,2013-03-21 20:25:00,
2013-03-21 16:30:00,27.1,11.4,29.89,WSW,255,6.0,18.0,51,0.00,,---,0.00,250.00,VWS V14.00,2013-03-21 20:30:00,
2013-03-21 16:35:00,28.2,13.3,29.89,West,281,15.0,19.0,53,0.00,,---,0.00,281.00,VWS V14.00,2013-03-21 20:35:00,
2013-03-21 16:40:00,28.0,12.7,29.89,WNW,288,9.0,22.0,52,0.00,,---,0.00,682.00,VWS V14.00,2013-03-21 20:40:00,
2013-03-21 16:45:00,28.7,13.8,29.89,West,267,6.0,22.0,53,0.00,,---,0.00,229.00,VWS V14.00,2013-03-21 20:45:00,
2013-03-21 16:50:00,28.9,12.6,29.89,WNW,296,9.0,22.0,50,0.00,,---,0.00,190.00,VWS V14.00,2013-03-21 20:50:00,
2013-03-21 16:55:00,28.4,12.1,29.89,WNW,288,6.0,22.0,50,0.00,,---,0.00,179.00,VWS V14.00,2013-03-21 20:55:00,
2013-03-21 17:00:00,28.0,11.8,29.89,West,280,15.0,22.0,50,0.00,,---,0.00,167.00,VWS V14.00,2013-03-21 21:00:00,
2013-03-21 17:01:00,28.0,11.8,29.89,WNW,287,11.0,22.0,50,0.00,,---,0.00,169.00,VWS V14.00,2013-03-21 21:01:00,
2013-03-21 17:06:00,27.9,12.6,29.89,West,269,11.0,15.0,52,0.00,,---,0.00,192.00,VWS V14.00,2013-03-21 21:06:00,
2013-03-21 17:11:00,27.7,11.5,29.90,WNW,283,9.0,18.0,50,0.00,,---,0.00,169.00,VWS V14.00,2013-03-21 21:11:00,
2013-03-21 17:16:00,27.8,12.5,29.90,WSW,258,11.0,18.0,52,0.00,,---,0.00,144.00,VWS V14.00,2013-03-21 21:16:00,
2013-03-21 17:21:00,27.8,12.5,29.90,WSW,254,6.0,18.0,52,0.00,,---,0.00,199.00,VWS V14.00,2013-03-21 21:21:00,
2013-03-21 17:26:00,28.0,13.1,29.90,West,276,5.0,18.0,53,0.00,,---,0.00,172.00,VWS V14.00,2013-03-21 21:26:00,
2013-03-21 17:30:00,28.5,13.1,29.90,WNW,286,9.0,18.0,52,0.00,,---,0.00,513.00,VWS V14.00,2013-03-21 21:30:00,
2013-03-21 17:31:00,28.6,13.2,29.90,West,280,9.0,9.0,52,0.00,,---,0.00,513.00,VWS V14.00,2013-03-21 21:31:00,
2013-03-21 17:36:00,28.8,13.0,29.90,WSW,255,11.0,17.0,51,0.00,,---,0.00,118.00,VWS V14.00,2013-03-21 21:36:00,
2013-03-21 17:41:00,28.2,12.4,29.90,West,272,12.0,17.0,51,0.00,,---,0.00,107.00,VWS V14.00,2013-03-21 21:41:00,
2013-03-21 17:47:00,28.1,12.8,29.90,NW,313,6.0,17.0,52,0.00,,---,0.00,134.00,VWS V14.00,2013-03-21 21:47:00,
2013-03-21 17:52:00,28.0,12.7,29.90,West,269,6.0,17.0,52,0.00,,---,0.00,118.00,VWS V14.00,2013-03-21 21:52:00,
2013-03-21 17:57:00,28.0,12.7,29.89,West,265,2.0,17.0,52,0.00,,---,0.00,134.00,VWS V14.00,2013-03-21 21:57:00,
2013-03-21 18:00:00,28.1,12.8,29.90,WNW,285,8.0,17.0,52,0.00,,---,0.00,128.00,VWS V14.00,2013-03-21 22:00:00,
2013-03-21 18:02:00,28.1,12.8,29.90,WNW,303,13.0,14.0,52,0.00,,---,0.00,125.00,VWS V14.00,2013-03-21 22:02:00,
2013-03-21 18:07:00,28.0,13.1,29.90,West,272,8.0,14.0,53,0.00,,---,0.00,107.00,VWS V14.00,2013-03-21 22:07:00,
2013-03-21 18:12:00,28.1,13.2,29.90,WNW,283,8.0,14.0,53,0.00,,---,0.00,86.00,VWS V14.00,2013-03-21 22:12:00,
2013-03-21 18:17:00,28.0,13.1,29.90,West,281,5.0,14.0,53,0.00,,---,0.00,88.00,VWS V14.00,2013-03-21 22:17:00,
2013-03-21 18:22:00,28.0,12.7,29.90,WNW,296,6.0,14.0,52,0.00,,---,0.00,69.00,VWS V14.00,2013-03-21 22:22:00,
2013-03-21 18:27:00,28.1,13.2,29.90,West,274,9.0,14.0,53,0.00,,---,0.00,179.00,VWS V14.00,2013-03-21 22:27:00,
2013-03-21 18:30:00,28.3,12.9,29.90,WNW,286,7.0,15.0,52,0.00,,---,0.00,156.00,VWS V14.00,2013-03-21 22:30:00,
2013-03-21 18:32:00,28.3,13.4,29.90,West,266,6.0,7.0,53,0.00,,---,0.00,90.00,VWS V14.00,2013-03-21 22:32:00,
2013-03-21 18:37:00,28.5,13.6,29.90,WSW,247,1.0,11.0,53,0.00,,---,0.00,149.00,VWS V14.00,2013-03-21 22:37:00,
2013-03-21 18:42:00,28.7,13.3,29.90,West,270,8.0,14.0,52,0.00,,---,0.00,63.00,VWS V14.00,2013-03-21 22:42:00,
2013-03-21 18:47:00,28.4,13.0,29.91,West,281,9.0,15.0,52,0.00,,---,0.00,47.00,VWS V14.00,2013-03-21 22:47:00,
2013-03-21 18:52:00,28.1,13.2,29.91,WNW,286,9.0,15.0,53,0.00,,---,0.00,40.00,VWS V14.00,2013-03-21 22:52:00,
2013-03-21 18:57:00,28.0,13.1,29.91,WNW,292,8.0,15.0,53,0.00,,---,0.00,28.00,VWS V14.00,2013-03-21 22:57:00,
2013-03-21 19:00:00,28.0,13.5,29.91,West,264,5.0,15.0,54,0.00,,---,0.00,21.00,VWS V14.00,2013-03-21 23:00:00,
2013-03-21 19:02:00,27.9,13.4,29.91,West,262,4.0,8.0,54,0.00,,---,0.00,19.00,VWS V14.00,2013-03-21 23:02:00,
2013-03-21 19:07:00,27.9,13.4,29.91,West,279,8.0,11.0,54,0.00,,---,0.00,14.00,VWS V14.00,2013-03-21 23:07:00,
2013-03-21 19:12:00,27.9,13.8,29.92,SW,222,6.0,12.0,55,0.00,,---,0.00,11.00,VWS V14.00,2013-03-21 23:12:00,
2013-03-21 19:17:00,27.9,13.8,29.92,WSW,252,5.0,12.0,55,0.00,,---,0.00,7.00,VWS V14.00,2013-03-21 23:17:00,
2013-03-21 19:22:00,27.9,14.2,29.92,West,272,6.0,13.0,56,0.00,,---,0.00,5.00,VWS V14.00,2013-03-21 23:22:00,
2013-03-21 19:27:00,27.9,14.2,29.92,WNW,284,8.0,13.0,56,0.00,,---,0.00,0.00,VWS V14.00,2013-03-21 23:27:00,
2013-03-21 19:30:00,27.9,14.2,29.92,WSW,257,3.0,13.0,56,0.00,,---,0.00,0.00,VWS V14.00,2013-03-21 23:30:00,
2013-03-21 19:32:00,27.9,14.2,29.92,West,265,2.0,5.0,56,0.00,,---,0.00,0.00,VWS V14.00,2013-03-21 23:32:00,
2013-03-21 19:37:00,27.9,14.2,29.92,West,281,4.0,8.0,56,0.00,,---,0.00,0.00,VWS V14.00,2013-03-21 23:37:00,
2013-03-21 19:42:00,27.8,14.2,29.92,WSW,243,8.0,12.0,56,0.00,,---,0.00,0.00,VWS V14.00,2013-03-21 23:42:00,
2013-03-21 19:47:00,27.9,14.6,29.92,West,270,13.0,15.0,57,0.00,,---,0.00,0.00,VWS V14.00,2013-03-21 23:47:00,
2013-03-21 19:52:00,27.9,15.1,29.93,West,281,7.0,15.0,58,0.00,,---,0.00,0.00,VWS V14.00,2013-03-21 23:52:00,
2013-03-21 19:57:00,27.8,15.0,29.93,West,265,13.0,15.0,58,0.00,,---,0.00,0.00,VWS V14.00,2013-03-21 23:57:00,
2013-03-21 20:00:00,27.8,15.4,29.93,West,275,4.0,15.0,59,0.00,,---,0.00,0.00,VWS V14.00,2013-03-22 00:00:00,
2013-03-21 20:02:00,27.7,15.6,29.93,WSW,250,7.0,7.0,60,0.00,,---,0.00,0.00,VWS V14.00,2013-03-22 00:02:00,
2013-03-21 20:07:00,27.7,15.3,29.93,WSW,254,1.0,8.0,59,0.00,,---,0.00,0.00,VWS V14.00,2013-03-22 00:07:00,
2013-03-21 20:13:00,27.6,15.6,29.93,SW,232,4.0,12.0,60,0.00,,---,0.00,0.00,VWS V14.00,2013-03-22 00:13:00,
2013-03-21 20:18:00,27.7,15.6,29.93,West,267,10.0,12.0,60,0.00,,---,0.00,0.00,VWS V14.00,2013-03-22 00:18:00,
2013-03-21 20:23:00,27.7,15.6,29.93,West,263,3.0,12.0,60,0.00,,---,0.00,0.00,VWS V14.00,2013-03-22 00:23:00,
2013-03-21 20:28:00,27.6,15.9,29.93,West,261,10.0,14.0,61,0.00,,---,0.00,0.00,VWS V14.00,2013-03-22 00:28:00,
2013-03-21 20:30:00,27.6,16.3,29.93,West,259,14.0,14.0,62,0.00,,---,0.00,0.00,VWS V14.00,2013-03-22 00:30:00,
2013-03-21 20:33:00,27.5,16.2,29.93,WSW,257,8.0,14.0,62,0.00,,---,0.00,0.00,VWS V14.00,2013-03-22 00:33:00,
2013-03-21 20:38:00,27.5,16.2,29.93,West,264,5.0,14.0,62,0.00,,---,0.00,0.00,VWS V14.00,2013-03-22 00:38:00,
2013-03-21 20:43:00,27.4,16.5,29.93,West,276,11.0,14.0,63,0.00,,---,0.00,0.00,VWS V14.00,2013-03-22 00:43:00,
2013-03-21 20:48:00,27.3,16.8,29.93,West,263,6.0,14.0,64,0.00,,---,0.00,0.00,VWS V14.00,2013-03-22 00:48:00,
2013-03-21 20:53:00,27.3,16.8,29.93,West,267,8.0,15.0,64,0.00,,---,0.00,0.00,VWS V14.00,2013-03-22 00:53:00,
2013-03-21 20:58:00,27.2,16.6,29.94,West,265,10.0,17.0,64,0.00,,---,0.00,0.00,VWS V14.00,2013-03-22 00:58:00,
2013-03-21 21:00:00,27.2,16.6,29.94,West,279,7.0,17.0,64,0.00,,---,0.00,0.00,VWS V14.00,2013-03-22 01:00:00,
2013-03-21 21:03:00,27.1,16.6,29.94,WSW,248,5.0,8.0,64,0.00,,---,0.00,0.00,VWS V14.00,2013-03-22 01:03:00,
2013-03-21 21:08:00,27.0,16.8,29.94,West,275,7.0,10.0,65,0.00,,---,0.00,0.00,VWS V14.00,2013-03-22 01:08:00,
2013-03-21 21:13:00,26.9,16.7,29.94,WNW,286,7.0,13.0,65,0.00,,---,0.00,0.00,VWS V14.00,2013-03-22 01:13:00,
2013-03-21 21:18:00,26.9,16.7,29.94,WSW,238,6.0,13.0,65,0.00,,---,0.00,0.00,VWS V14.00,2013-03-22 01:18:00,
2013-03-21 21:23:00,27.0,16.8,29.94,WNW,291,14.0,14.0,65,0.00,,---,0.00,0.00,VWS V14.00,2013-03-22 01:23:00,
2013-03-21 21:28:00,27.2,17.0,29.94,West,268,6.0,14.0,65,0.00,,---,0.00,0.00,VWS V14.00,2013-03-22 01:28:00,
2013-03-21 21:30:00,27.2,17.0,29.94,SW,231,11.0,14.0,65,0.00,,---,0.00,0.00,VWS V14.00,2013-03-22 01:30:00,
2013-03-21 21:33:00,27.2,16.6,29.94,West,270,0.0,11.0,64,0.00,,---,0.00,0.00,VWS V14.00,2013-03-22 01:33:00,
2013-03-21 21:38:00,27.3,17.1,29.94,West,267,3.0,11.0,65,0.00,,---,0.00,0.00,VWS V14.00,2013-03-22 01:38:00,
2013-03-21 21:43:00,27.2,17.0,29.94,WSW,246,5.0,11.0,65,0.00,,---,0.00,0.00,VWS V14.00,2013-03-22 01:43:00,
2013-03-21 21:48:00,27.3,17.1,29.94,WSW,248,0.0,11.0,65,0.00,,---,0.00,0.00,VWS V14.00,2013-03-22 01:48:00,
2013-03-21 21:53:00,27.3,17.1,29.94,SSW,210,3.0,11.0,65,0.00,,---,0.00,0.00,VWS V14.00,2013-03-22 01:53:00,
2013-03-21 21:59:00,27.3,17.1,29.94,WSW,245,5.0,18.0,65,0.00,,---,0.00,0.00,VWS V14.00,2013-03-22 01:59:00,
2013-03-21 22:00:00,27.4,17.2,29.94,West,260,5.0,18.0,65,0.00,,---,0.00,0.00,VWS V14.00,2013-03-22 02:00:00,
2013-03-21 22:04:00,27.4,17.2,29.94,West,263,6.0,10.0,65,0.00,,---,0.00,0.00,VWS V14.00,2013-03-22 02:04:00,
2013-03-21 22:09:00,27.4,17.5,29.94,West,269,8.0,14.0,66,0.00,,---,0.00,0.00,VWS V14.00,2013-03-22 02:09:00,
2013-03-21 22:14:00,27.3,17.5,29.94,SW,227,12.0,15.0,66,0.00,,---,0.00,0.00,VWS V14.00,2013-03-22 02:14:00,
2013-03-21 22:19:00,27.3,17.8,29.94,SW,217,6.0,15.0,67,0.00,,---,0.00,0.00,VWS V14.00,2013-03-22 02:19:00,
2013-03-21 22:24:00,27.2,17.7,29.94,West,268,1.0,15.0,67,0.00,,---,0.00,0.00,VWS V14.00,2013-03-22 02:24:00,
2013-03-21 22:29:00,27.2,17.7,29.94,WSW,242,6.0,15.0,67,0.00,,---,0.00,0.00,VWS V14.00,2013-03-22 02:29:00,
2013-03-21 22:30:00,27.2,17.7,29.94,WSW,245,4.0,15.0,67,0.00,,---,0.00,0.00,VWS V14.00,2013-03-22 02:30:00,
2013-03-21 22:34:00,27.2,17.7,29.94,West,263,6.0,8.0,67,0.00,,---,0.00,0.00,VWS V14.00,2013-03-22 02:34:00,
2013-03-21 22:39:00,27.2,17.7,29.94,West,268,4.0,10.0,67,0.00,,---,0.00,0.00,VWS V14.00,2013-03-22 02:39:00,
2013-03-21 22:44:00,27.3,17.8,29.94,West,262,7.0,13.0,67,0.00,,---,0.00,0.00,VWS V14.00,2013-03-22 02:44:00,
2013-03-21 22:49:00,27.3,17.8,29.95,WSW,258,10.0,13.0,67,0.00,,---,0.00,0.00,VWS V14.00,2013-03-22 02:49:00,
2013-03-21 22:54:00,27.3,18.1,29.95,WSW,246,5.0,14.0,68,0.00,,---,0.00,0.00,VWS V14.00,2013-03-22 02:54:00,
2013-03-21 22:59:00,27.3,18.1,29.95,West,262,6.0,14.0,68,0.00,,---,0.00,0.00,VWS V14.00,2013-03-22 02:59:00,
2013-03-21 23:00:00,27.3,18.1,29.95,West,260,5.0,14.0,68,0.00,,---,0.00,0.00,VWS V14.00,2013-03-22 03:00:00,
2013-03-21 23:04:00,27.3,18.5,29.95,WSW,254,5.0,11.0,69,0.00,,---,0.00,0.00,VWS V14.00,2013-03-22 03:04:00,
2013-03-21 23:09:00,27.2,18.4,29.95,West,262,8.0,13.0,69,0.00,,---,0.00,0.00,VWS V14.00,2013-03-22 03:09:00,
2013-03-21 23:14:00,27.2,18.4,29.95,West,271,4.0,13.0,69,0.00,,---,0.00,0.00,VWS V14.00,2013-03-22 03:14:00,
2013-03-21 23:20:00,27.2,18.4,29.95,WSW,242,6.0,13.0,69,0.00,,---,0.00,0.00,VWS V14.00,2013-03-22 03:20:00,
2013-03-21 23:25:00,27.3,18.5,29.96,SW,229,3.0,17.0,69,0.00,,---,0.00,0.00,VWS V14.00,2013-03-22 03:25:00,
2013-03-21 23:30:00,27.3,18.5,29.96,WSW,248,7.0,17.0,69,0.00,,---,0.00,0.00,VWS V14.00,2013-03-22 03:30:00,
2013-03-21 23:35:00,27.3,18.8,29.96,West,280,12.0,12.0,70,0.00,,---,0.00,0.00,VWS V14.00,2013-03-22 03:35:00,
2013-03-21 23:40:00,27.3,18.8,29.96,WSW,251,6.0,15.0,70,0.00,,---,0.00,0.00,VWS V14.00,2013-03-22 03:40:00,
2013-03-21 23:45:00,27.3,18.8,29.96,WNW,290,8.0,15.0,70,0.00,,---,0.00,0.00,VWS V14.00,2013-03-22 03:45:00,
2013-03-21 23:50:00,27.3,19.1,29.96,West,267,6.0,15.0,71,0.00,,---,0.00,0.00,VWS V14.00,2013-03-22 03:50:00,
2013-03-21 23:55:00,27.3,19.1,29.96,West,261,5.0,15.0,71,0.00,,---,0.00,0.00,VWS V14.00,2013-03-22 03:55:00,